createdAt,value
2019-04-23T00:00:56.381Z,8.75
2019-04-23T00:03:18.761Z,8.55
2019-04-23T00:05:59.952Z,8.58
2019-04-23T00:08:28.541Z,9.30
2019-04-23T00:10:58.692Z,9.23
2019-04-23T00:13:24.662Z,8.78
2019-04-23T00:16:10.824Z,9.63
2019-04-23T00:20:57.211Z,9.13
2019-04-23T00:23:38.477Z,9.05
2019-04-23T00:26:03.966Z,8.60
2019-04-23T00:28:36.125Z,8.55
2019-04-23T00:31:06.396Z,8.55
2019-04-23T00:33:30.248Z,9.43
2019-04-23T00:36:06.992Z,9.23
2019-04-23T00:41:04.256Z,8.88
2019-04-23T00:43:32.860Z,9.30
2019-04-23T00:46:03.512Z,9.53
2019-04-23T00:48:35.051Z,9.55
2019-04-23T00:50:58.475Z,11.40
2019-04-23T00:53:32.888Z,10.93
2019-04-23T00:56:25.005Z,9.53
2019-04-23T00:58:43.268Z,9.63
2019-04-23T01:01:03.831Z,9.18
2019-04-23T01:03:30.795Z,9.73
2019-04-23T01:06:08.214Z,9.38
2019-04-23T01:08:36.876Z,8.60
2019-04-23T01:16:13.099Z,9.45
2019-04-23T01:20:58.771Z,10.28
2019-04-23T01:23:40.628Z,9.73
2019-04-23T01:26:26.488Z,9.05
2019-04-23T01:29:03.489Z,9.68
2019-04-23T01:31:28.016Z,9.58
2019-04-23T01:33:59.440Z,9.03
2019-04-23T01:36:25.315Z,9.50
2019-04-23T01:39:02.071Z,8.55
2019-04-23T01:43:55.266Z,8.73
2019-04-23T01:46:35.740Z,9.58
2019-04-23T01:49:01.632Z,8.60
2019-04-23T01:51:39.877Z,8.73
2019-04-23T01:54:02.924Z,9.15
2019-04-23T01:56:30.737Z,8.95
2019-04-23T01:59:05.431Z,9.25
2019-04-23T02:01:36.071Z,9.33
2019-04-23T02:04:12.792Z,9.03
2019-04-23T02:06:36.800Z,9.03
2019-04-23T02:09:10.023Z,9.00
2019-04-23T02:11:34.165Z,9.78
2019-04-23T02:14:09.472Z,9.30
2019-04-23T02:16:36.100Z,9.40
2019-04-23T02:19:11.356Z,9.60
2019-04-23T02:21:52.864Z,9.30
2019-04-23T02:24:18.074Z,9.98
2019-04-23T02:26:48.586Z,9.90
2019-04-23T02:39:29.189Z,11.65
2019-04-23T02:42:07.303Z,11.45
2019-04-23T02:44:35.029Z,10.88
2019-04-23T02:49:44.288Z,11.35
2019-04-23T02:52:08.033Z,11.22
2019-04-23T02:57:05.552Z,11.73
2019-04-23T03:00:11.602Z,11.97
2019-04-23T03:07:26.712Z,10.93
2019-04-23T03:14:52.923Z,11.43
2019-04-23T03:17:15.159Z,12.07
2019-04-23T03:19:59.373Z,11.15
2019-04-23T03:22:26.357Z,11.35
2019-04-23T03:25:10.747Z,11.20
2019-04-23T03:27:37.520Z,12.88
2019-04-23T03:33:04.309Z,12.82
2019-04-23T03:37:40.744Z,12.90
2019-04-23T03:55:11.744Z,14.15
2019-04-23T04:00:27.246Z,14.13
2019-04-23T04:02:49.024Z,13.45
2019-04-23T04:05:16.551Z,14.28
2019-04-23T04:10:09.060Z,14.00
2019-04-23T04:15:21.280Z,14.00
2019-04-23T04:17:39.071Z,13.53
2019-04-23T04:20:20.259Z,13.50
2019-04-23T04:25:21.275Z,14.18
2019-04-23T04:27:54.151Z,13.70
2019-04-23T04:30:14.983Z,14.40
2019-04-23T04:32:47.172Z,14.38
2019-04-23T04:38:05.783Z,13.93
2019-04-23T04:40:24.133Z,14.58
2019-04-23T04:42:44.682Z,12.93
2019-04-23T04:45:22.798Z,13.25
2019-04-23T04:47:44.703Z,12.75
2019-04-23T04:50:24.246Z,13.48
2019-04-23T04:55:21.032Z,12.58
2019-04-23T04:57:54.045Z,13.35
2019-04-23T05:03:01.126Z,12.58
2019-04-23T05:05:45.452Z,13.18
2019-04-23T05:10:30.004Z,13.20
2019-04-23T05:20:20.504Z,11.30
2019-04-23T05:23:03.488Z,11.55
2019-04-23T05:25:20.909Z,11.38
2019-04-23T05:27:53.734Z,11.18
2019-04-23T05:30:29.201Z,10.10
2019-04-23T05:32:54.391Z,10.05
2019-04-23T05:38:05.354Z,10.58
2019-04-23T05:40:30.197Z,10.53
2019-04-23T05:45:21.894Z,9.43
2019-04-23T05:50:32.482Z,9.73
2019-04-23T05:52:57.738Z,10.08
2019-04-23T05:55:20.122Z,9.30
2019-04-23T05:57:52.019Z,9.53
2019-04-23T06:00:24.766Z,9.28
2019-04-23T06:02:57.172Z,9.10
2019-04-23T06:05:24.782Z,9.90
2019-04-23T06:10:27.318Z,8.90
2019-04-23T06:12:52.297Z,9.65
2019-04-23T06:15:28.691Z,9.63
2019-04-23T06:17:55.850Z,10.00
2019-04-23T06:20:27.654Z,8.93
2019-04-23T06:22:56.095Z,9.75
2019-04-23T06:25:42.184Z,8.28
2019-04-23T06:27:57.552Z,8.60
2019-04-23T06:30:26.618Z,8.68
2019-04-23T06:33:00.904Z,8.85
2019-04-23T06:35:22.450Z,8.80
2019-04-23T06:40:27.421Z,8.20
2019-04-23T06:43:04.809Z,8.40
2019-04-23T06:45:32.527Z,8.10
2019-04-23T06:48:09.119Z,8.50
2019-04-23T06:50:35.483Z,7.95
2019-04-23T06:53:00.586Z,8.10
2019-04-23T06:55:35.599Z,7.33
2019-04-23T06:58:14.973Z,7.50
2019-04-23T07:00:41.325Z,8.03
2019-04-23T07:03:15.029Z,7.40
2019-04-23T07:06:12.131Z,7.72
2019-04-23T07:08:54.721Z,6.62
2019-04-23T07:11:11.079Z,6.95
2019-04-23T07:13:40.081Z,5.62
2019-04-23T07:16:05.619Z,5.95
2019-04-23T07:18:34.553Z,5.97
2019-04-23T07:21:07.939Z,6.60
2019-04-23T07:26:23.226Z,5.80
2019-04-23T07:28:43.857Z,6.10
2019-04-23T07:31:14.269Z,6.10
2019-04-23T07:33:44.238Z,6.00
2019-04-23T07:36:13.821Z,5.83
2019-04-23T07:38:54.644Z,5.83
2019-04-23T07:41:49.828Z,6.00
2019-04-23T07:44:36.407Z,5.50
2019-04-23T07:47:11.355Z,6.12
2019-04-23T07:49:30.818Z,5.83
2019-04-23T07:52:06.663Z,5.83
2019-04-23T07:57:10.945Z,5.12
2019-04-23T07:59:39.061Z,5.78
2019-04-23T08:02:11.714Z,5.12
2019-04-23T08:04:35.213Z,5.45
2019-04-23T08:07:08.345Z,5.92
2019-04-23T08:09:43.636Z,5.50
2019-04-23T08:12:13.343Z,5.92
2019-04-23T08:14:40.836Z,5.60
2019-04-23T08:17:07.352Z,5.70
2019-04-23T08:19:42.491Z,5.87
2019-04-23T08:24:48.563Z,5.58
2019-04-23T08:27:18.282Z,5.33
2019-04-23T08:29:51.179Z,5.55
2019-04-23T08:35:06.529Z,5.33
2019-04-23T08:40:16.615Z,5.47
2019-04-23T08:42:45.654Z,6.28
2019-04-23T08:47:52.603Z,6.30
2019-04-23T08:50:21.745Z,6.15
2019-04-23T08:52:54.365Z,5.80
2019-04-23T08:55:21.154Z,6.22
2019-04-23T08:57:45.241Z,5.45
2019-04-23T09:00:31.426Z,5.60
2019-04-23T09:02:54.058Z,5.72
2019-04-23T09:05:30.144Z,5.35
2019-04-23T09:08:05.237Z,6.10
2019-04-23T09:10:28.233Z,5.80
2019-04-23T09:12:53.905Z,5.83
2019-04-23T09:17:56.319Z,5.03
2019-04-23T09:22:53.094Z,5.47
2019-04-23T09:25:29.853Z,5.72
2019-04-23T09:27:53.121Z,6.20
2019-04-23T09:32:59.993Z,6.08
2019-04-23T09:35:28.763Z,5.30
2019-04-23T09:38:11.383Z,5.83
2019-04-23T09:41:04.130Z,6.17
2019-04-23T09:43:31.489Z,6.00
2019-04-23T09:48:54.220Z,5.53
2019-04-23T09:53:42.014Z,6.17
2019-04-23T09:56:17.236Z,5.35
2019-04-23T09:58:49.973Z,6.17
2019-04-23T10:01:26.027Z,5.58
2019-04-23T10:03:49.344Z,6.15
2019-04-23T10:06:12.453Z,6.12
2019-04-23T10:08:42.355Z,5.95
2019-04-23T10:11:07.494Z,5.85
2019-04-23T10:13:38.461Z,6.00
2019-04-23T10:16:10.283Z,5.65
2019-04-23T10:18:37.459Z,6.65
2019-04-23T10:21:07.788Z,6.00
2019-04-23T10:23:37.181Z,5.70
2019-04-23T10:26:06.289Z,6.22
2019-04-23T10:28:38.129Z,5.92
2019-04-23T10:31:08.931Z,6.22
2019-04-23T10:33:38.072Z,6.15
2019-04-23T10:36:10.976Z,6.15
2019-04-23T10:38:41.553Z,5.92
2019-04-23T10:41:07.291Z,5.37
2019-04-23T10:43:39.420Z,6.12
2019-04-23T10:46:29.746Z,6.40
2019-04-23T10:54:27.917Z,5.90
2019-04-23T10:56:47.870Z,6.33
2019-04-23T10:59:38.959Z,6.70
2019-04-23T11:07:26.252Z,5.62
2019-04-23T11:09:57.037Z,6.12
2019-04-23T11:17:46.543Z,6.05
2019-04-23T11:25:29.959Z,5.92
2019-04-23T11:28:21.166Z,6.30
2019-04-23T11:30:25.614Z,6.42
2019-04-23T11:32:56.459Z,6.53
2019-04-23T11:35:21.568Z,7.05
2019-04-23T11:40:21.280Z,6.95
2019-04-23T11:42:52.924Z,6.70
2019-04-23T11:45:30.603Z,5.92
2019-04-23T11:50:32.420Z,7.15
2019-04-23T11:58:00.737Z,6.62
2019-04-23T12:00:31.481Z,6.72
2019-04-23T12:02:59.180Z,6.85
2019-04-23T12:06:07.289Z,6.10
2019-04-23T12:08:33.556Z,6.00
2019-04-23T12:11:27.521Z,6.30
2019-04-23T12:13:39.618Z,7.80
2019-04-23T12:16:00.474Z,7.45
2019-04-23T12:18:43.200Z,6.78
2019-04-23T12:20:56.522Z,6.87
2019-04-23T12:23:43.528Z,8.20
2019-04-23T12:26:15.511Z,6.85
2019-04-23T12:28:39.868Z,7.42
2019-04-23T12:31:09.845Z,6.78
2019-04-23T12:33:47.086Z,6.50
2019-04-23T12:36:28.369Z,6.95
2019-04-23T12:38:51.213Z,6.53
2019-04-23T12:41:27.105Z,6.42
2019-04-23T12:43:53.319Z,6.95
2019-04-23T12:46:26.042Z,7.00
2019-04-23T12:48:58.741Z,7.15
2019-04-23T12:51:34.589Z,7.08
2019-04-23T12:53:50.811Z,7.47
2019-04-23T12:56:34.454Z,7.28
2019-04-23T12:58:49.054Z,7.25
2019-04-23T13:01:22.642Z,6.75
2019-04-23T13:03:45.554Z,7.37
2019-04-23T13:06:20.861Z,6.90
2019-04-23T13:08:53.755Z,7.47
2019-04-23T13:11:30.077Z,6.55
2019-04-23T13:13:58.899Z,7.17
2019-04-23T13:18:58.055Z,7.17
2019-04-23T13:22:03.308Z,7.25
2019-04-23T13:24:04.133Z,7.22
2019-04-23T13:26:30.894Z,7.45
2019-04-23T13:29:13.874Z,6.95
2019-04-23T13:31:28.930Z,7.17
2019-04-23T13:34:04.234Z,7.80
2019-04-23T13:36:39.828Z,8.20
2019-04-23T13:39:03.351Z,7.50
2019-04-23T13:41:33.496Z,8.28
2019-04-23T13:44:00.136Z,7.97
2019-04-23T13:46:39.762Z,7.25
2019-04-23T13:49:03.911Z,7.67
2019-04-23T13:51:39.676Z,7.20
2019-04-23T13:54:15.792Z,8.50
2019-04-23T13:56:55.376Z,7.62
2019-04-23T13:59:16.373Z,7.90
2019-04-23T14:01:59.252Z,8.00
2019-04-23T14:04:21.269Z,8.68
2019-04-23T14:06:47.494Z,9.10
2019-04-23T14:09:19.990Z,8.63
2019-04-23T14:11:40.434Z,9.03
2019-04-23T14:14:34.528Z,9.63
2019-04-23T14:17:02.588Z,9.20
2019-04-23T14:19:18.955Z,9.20
2019-04-23T14:26:59.207Z,9.15
2019-04-23T14:29:34.105Z,8.78
2019-04-23T14:32:04.384Z,8.15
2019-04-23T14:34:25.465Z,8.30
2019-04-23T14:37:07.492Z,8.55
2019-04-23T14:39:32.351Z,8.65
2019-04-23T14:42:12.509Z,8.53
2019-04-23T14:44:22.438Z,8.58
2019-04-23T14:47:07.432Z,8.70
2019-04-23T14:49:45.528Z,9.05
2019-04-23T14:52:15.554Z,9.05
2019-04-23T14:55:14.969Z,9.33
2019-04-23T14:57:15.712Z,8.95
2019-04-23T14:59:48.143Z,8.28
2019-04-23T15:07:28.220Z,8.03
2019-04-23T15:09:59.253Z,7.90
2019-04-23T15:14:52.817Z,8.43
2019-04-23T15:17:20.632Z,8.93
2019-04-23T15:19:49.660Z,8.38
2019-04-23T15:22:20.387Z,8.08
2019-04-23T15:25:13.645Z,8.35
2019-04-23T15:29:38.739Z,7.78
2019-04-23T15:32:24.172Z,8.45
2019-04-23T15:34:57.763Z,8.35
2019-04-23T15:39:56.768Z,8.45
2019-04-23T15:42:25.480Z,7.85
2019-04-23T15:44:55.697Z,7.03
2019-04-23T15:47:28.514Z,7.17
2019-04-23T15:50:06.440Z,8.08
2019-04-23T15:52:30.312Z,7.40
2019-04-23T15:54:54.726Z,7.50
2019-04-23T15:57:32.484Z,8.20
2019-04-23T15:59:54.602Z,8.23
2019-04-23T16:01:56.231Z,7.97
2019-04-23T16:04:25.139Z,7.40
2019-04-23T16:06:54.128Z,7.83
2019-04-23T16:09:54.071Z,6.97
2019-04-23T16:12:20.388Z,7.55
2019-04-23T16:15:02.455Z,7.30
2019-04-23T16:20:19.044Z,7.30
2019-04-23T16:27:44.329Z,6.78
2019-04-23T16:30:15.916Z,6.92
2019-04-23T16:32:59.693Z,7.45
2019-04-23T16:37:58.926Z,7.05
2019-04-23T16:40:31.897Z,7.33
2019-04-23T16:43:01.574Z,6.70
2019-04-23T16:45:25.486Z,6.92
2019-04-23T16:47:55.842Z,6.80
2019-04-23T16:50:31.099Z,6.70
2019-04-23T16:53:02.963Z,6.65
2019-04-23T16:55:24.042Z,7.17
2019-04-23T16:58:08.337Z,6.90
2019-04-23T17:03:07.266Z,6.83
2019-04-23T17:05:33.215Z,7.20
2019-04-23T17:08:24.810Z,7.50
2019-04-23T17:10:33.591Z,6.78
2019-04-23T17:15:34.527Z,5.90
2019-04-23T17:18:03.540Z,7.10
2019-04-23T17:20:30.770Z,6.62
2019-04-23T17:23:05.240Z,6.85
2019-04-23T17:25:28.217Z,6.87
2019-04-23T17:28:17.077Z,7.15
2019-04-23T17:30:37.791Z,7.55
2019-04-23T17:33:15.378Z,7.20
2019-04-23T17:35:40.269Z,7.08
2019-04-23T17:38:21.185Z,7.53
2019-04-23T17:40:47.555Z,7.55
2019-04-23T17:43:06.441Z,7.00
2019-04-23T17:45:35.812Z,7.00
2019-04-23T17:50:56.631Z,7.90
2019-04-23T17:53:26.779Z,7.50
2019-04-23T18:01:14.778Z,8.43
2019-04-23T18:03:30.537Z,7.55
2019-04-23T18:08:29.207Z,7.17
2019-04-23T18:13:35.078Z,7.67
2019-04-23T18:16:09.584Z,8.23
2019-04-23T18:18:38.155Z,7.15
2019-04-23T18:21:16.483Z,8.68
2019-04-23T18:23:31.998Z,7.70
2019-04-23T18:26:19.014Z,7.87
2019-04-23T18:28:49.902Z,7.95
2019-04-23T18:31:19.811Z,7.55
2019-04-23T18:36:22.624Z,8.28
2019-04-23T18:38:59.591Z,7.92
2019-04-23T18:41:29.545Z,7.65
2019-04-23T18:44:05.811Z,8.43
2019-04-23T18:48:53.124Z,8.10
2019-04-23T18:51:33.943Z,7.03
2019-04-23T18:53:56.594Z,7.33
2019-04-23T18:59:27.189Z,8.48
2019-04-23T19:01:33.525Z,7.92
2019-04-23T19:04:19.788Z,7.53
2019-04-23T19:06:44.117Z,8.28
2019-04-23T19:09:17.773Z,8.33
2019-04-23T19:17:36.052Z,8.60
2019-04-23T19:19:40.390Z,8.80
2019-04-23T19:29:43.909Z,8.45
2019-04-23T19:32:08.868Z,7.83
2019-04-23T19:34:40.803Z,7.87
2019-04-23T19:37:35.281Z,8.68
2019-04-23T19:39:44.974Z,7.78
2019-04-23T19:42:29.040Z,7.30
2019-04-23T19:49:40.681Z,7.53
2019-04-23T19:52:18.762Z,7.92
2019-04-23T19:54:52.056Z,7.85
2019-04-23T19:57:13.527Z,8.20
2019-04-23T19:59:55.618Z,7.90
2019-04-23T20:02:17.487Z,7.92
2019-04-23T20:12:14.111Z,8.70
2019-04-23T20:14:47.408Z,8.10
2019-04-23T20:17:34.421Z,8.05
2019-04-23T20:22:25.630Z,7.87
2019-04-23T20:27:23.479Z,7.60
2019-04-23T20:30:21.245Z,8.25
2019-04-23T20:40:16.470Z,7.70
2019-04-23T20:42:48.222Z,8.25
2019-04-23T20:45:14.729Z,7.92
2019-04-23T20:47:54.188Z,7.60
2019-04-23T20:50:10.699Z,6.90
2019-04-23T20:52:46.868Z,7.20
2019-04-23T20:55:19.559Z,6.70
2019-04-23T21:00:43.306Z,7.17
2019-04-23T21:10:35.921Z,6.83
2019-04-23T21:20:37.934Z,6.75
2019-04-23T21:23:09.337Z,6.67
2019-04-23T21:25:43.150Z,7.22
2019-04-23T21:36:11.071Z,7.40
2019-04-23T21:53:51.725Z,6.55
2019-04-23T21:56:23.883Z,6.33
2019-04-23T22:01:36.679Z,7.33
2019-04-23T22:11:49.467Z,6.55
2019-04-23T22:16:40.964Z,6.70
2019-04-23T22:19:12.689Z,6.87
2019-04-23T22:21:42.952Z,7.28
2019-04-23T22:24:08.716Z,6.62
2019-04-23T22:26:36.236Z,6.65
2019-04-23T22:29:18.807Z,7.28
2019-04-23T22:31:44.039Z,6.95
2019-04-23T22:37:01.854Z,6.50
2019-04-23T22:39:04.823Z,6.80
2019-04-23T22:41:44.370Z,6.90
2019-04-23T22:44:09.465Z,6.75
2019-04-23T22:46:50.898Z,6.72
2019-04-23T22:51:48.590Z,7.22
2019-04-23T22:54:09.513Z,6.85
2019-04-23T22:56:44.341Z,6.60
2019-04-23T22:59:18.221Z,7.62
2019-04-23T23:01:48.934Z,7.00
2019-04-23T23:04:20.652Z,6.83
2019-04-23T23:06:59.349Z,6.80
2019-04-23T23:09:33.273Z,6.45
2019-04-23T23:11:49.698Z,6.33
2019-04-23T23:14:43.050Z,6.58
2019-04-23T23:19:21.735Z,6.97
2019-04-23T23:21:59.745Z,6.30
2019-04-23T23:24:16.864Z,6.70
2019-04-23T23:27:02.436Z,6.50
2019-04-23T23:29:15.402Z,6.00
2019-04-23T23:31:56.071Z,5.72
2019-04-23T23:34:15.966Z,6.35
2019-04-23T23:36:54.749Z,6.97
2019-04-23T23:39:24.703Z,6.30
2019-04-23T23:41:55.141Z,6.10
2019-04-23T23:46:56.321Z,6.25
2019-04-23T23:49:18.589Z,6.50
2019-04-23T23:51:49.329Z,6.25
2019-04-23T23:54:16.248Z,6.47
2019-04-23T23:56:59.915Z,6.62
2019-04-23T23:59:24.764Z,5.55
